createdAt,value
2022-10-15T00:01:37.944Z,27.70
2022-10-15T00:04:07.885Z,25.90
2022-10-15T00:06:36.476Z,25.70
2022-10-15T00:09:05.216Z,25.13
2022-10-15T00:11:33.688Z,27.20
2022-10-15T00:14:02.111Z,25.20
2022-10-15T00:16:30.977Z,25.50
2022-10-15T00:19:00.720Z,23.57
2022-10-15T00:21:30.901Z,24.80
2022-10-15T00:23:59.557Z,24.90
2022-10-15T00:26:29.712Z,24.63
2022-10-15T00:29:00.118Z,24.77
2022-10-15T00:31:30.275Z,26.00
2022-10-15T00:34:00.590Z,25.67
2022-10-15T00:36:32.960Z,25.17
2022-10-15T00:39:01.973Z,24.83
2022-10-15T00:41:32.694Z,24.07
2022-10-15T00:44:02.907Z,26.13
2022-10-15T00:46:34.427Z,24.00
2022-10-15T00:49:06.585Z,25.43
2022-10-15T00:51:43.843Z,24.17
2022-10-15T00:54:13.831Z,25.20
2022-10-15T00:56:44.787Z,24.73
2022-10-15T00:59:14.925Z,26.40
2022-10-15T01:01:43.699Z,23.57
2022-10-15T01:04:14.345Z,23.40
2022-10-15T01:06:44.391Z,27.27
2022-10-15T01:09:13.182Z,26.33
2022-10-15T01:11:46.722Z,25.60
2022-10-15T01:14:31.879Z,26.37
2022-10-15T01:17:06.780Z,26.27
2022-10-15T01:19:59.972Z,25.33
2022-10-15T01:22:45.501Z,25.33
2022-10-15T01:25:29.534Z,26.90
2022-10-15T01:28:03.008Z,26.83
2022-10-15T01:30:37.185Z,25.33
2022-10-15T01:33:27.502Z,25.27
2022-10-15T01:36:06.320Z,26.40
2022-10-15T01:38:46.748Z,25.33
2022-10-15T01:41:21.213Z,26.63
2022-10-15T01:43:58.235Z,25.17
2022-10-15T01:46:42.180Z,26.13
2022-10-15T01:49:16.248Z,25.90
2022-10-15T01:51:45.867Z,26.13
2022-10-15T01:54:19.211Z,29.07
2022-10-15T01:56:50.535Z,26.43
2022-10-15T01:59:24.679Z,25.87
2022-10-15T02:01:57.916Z,26.67
2022-10-15T02:04:28.763Z,28.90
2022-10-15T02:07:02.077Z,29.67
2022-10-15T02:09:46.951Z,26.77
2022-10-15T02:12:29.499Z,27.23
2022-10-15T02:15:04.526Z,29.57
2022-10-15T02:17:39.900Z,30.17
2022-10-15T02:20:13.560Z,30.77
2022-10-15T02:22:50.377Z,30.97
2022-10-15T02:25:22.689Z,30.30
2022-10-15T02:27:53.451Z,31.67
2022-10-15T02:30:22.263Z,33.17
2022-10-15T02:32:57.003Z,28.87
2022-10-15T02:35:27.306Z,30.07
2022-10-15T02:38:00.511Z,29.50
2022-10-15T02:40:32.033Z,29.40
2022-10-15T02:43:01.420Z,29.47
2022-10-15T02:45:29.823Z,29.47
2022-10-15T02:47:59.621Z,28.57
2022-10-15T02:50:28.080Z,29.63
2022-10-15T02:52:56.519Z,27.37
2022-10-15T02:55:27.088Z,30.77
2022-10-15T02:57:55.479Z,29.57
2022-10-15T03:00:24.225Z,28.67
2022-10-15T03:02:53.079Z,28.70
2022-10-15T03:05:23.170Z,28.73
2022-10-15T03:07:51.668Z,28.37
2022-10-15T03:10:20.735Z,27.57
2022-10-15T03:12:49.214Z,26.70
2022-10-15T03:15:18.593Z,27.67
2022-10-15T03:17:48.292Z,26.63
2022-10-15T03:20:18.845Z,28.87
2022-10-15T03:22:48.669Z,28.83
2022-10-15T03:25:18.227Z,30.10
2022-10-15T03:27:46.668Z,26.33
2022-10-15T03:30:25.780Z,28.30
2022-10-15T03:32:54.375Z,27.57
2022-10-15T03:35:23.607Z,28.97
2022-10-15T03:37:53.456Z,29.37
2022-10-15T03:40:22.039Z,30.70
2022-10-15T03:42:56.437Z,29.37
2022-10-15T03:45:26.736Z,29.43
2022-10-15T03:48:12.176Z,30.40
2022-10-15T03:50:40.951Z,30.43
2022-10-15T03:53:10.796Z,27.27
2022-10-15T03:55:39.204Z,29.37
2022-10-15T03:58:07.817Z,28.57
2022-10-15T04:00:42.486Z,26.70
2022-10-15T04:03:11.605Z,26.80
2022-10-15T04:05:40.056Z,26.50
2022-10-15T04:08:12.596Z,27.17
2022-10-15T04:10:42.627Z,25.10
2022-10-15T04:13:11.499Z,30.40
2022-10-15T04:15:41.948Z,26.33
2022-10-15T04:18:12.893Z,31.93
2022-10-15T04:20:42.722Z,32.03
2022-10-15T04:23:23.510Z,28.90
2022-10-15T04:26:18.079Z,30.20
2022-10-15T04:28:48.303Z,31.37
2022-10-15T04:31:17.255Z,33.50
2022-10-15T04:33:45.602Z,30.43
2022-10-15T04:36:15.124Z,29.90
2022-10-15T04:38:54.098Z,29.33
2022-10-15T04:41:30.653Z,31.20
2022-10-15T04:44:06.481Z,32.23
2022-10-15T04:46:35.010Z,30.80
2022-10-15T04:49:11.951Z,33.53
2022-10-15T04:51:42.548Z,35.40
2022-10-15T04:54:18.350Z,35.13
2022-10-15T04:57:07.266Z,38.43
2022-10-15T04:59:37.211Z,37.80
2022-10-15T05:02:28.630Z,36.67
2022-10-15T05:05:10.815Z,35.07
2022-10-15T05:07:49.111Z,35.17
2022-10-15T05:10:18.977Z,33.27
2022-10-15T05:12:50.297Z,38.00
2022-10-15T05:15:29.218Z,36.47
2022-10-15T05:17:58.275Z,36.13
2022-10-15T05:20:33.971Z,37.90
2022-10-15T05:23:04.279Z,37.97
2022-10-15T05:25:36.648Z,36.87
2022-10-15T05:28:06.242Z,37.60
2022-10-15T05:30:36.219Z,36.97
2022-10-15T05:33:07.641Z,37.77
2022-10-15T05:35:36.435Z,37.97
2022-10-15T05:38:05.705Z,40.33
2022-10-15T05:40:35.916Z,45.07
2022-10-15T05:43:19.702Z,40.87
2022-10-15T05:45:50.594Z,40.30
2022-10-15T05:48:19.903Z,43.63
2022-10-15T05:50:48.881Z,40.60
2022-10-15T05:53:24.222Z,43.67
2022-10-15T05:55:59.068Z,43.77
2022-10-15T05:58:34.846Z,41.03
2022-10-15T06:01:07.996Z,41.77
2022-10-15T06:03:40.427Z,39.83
2022-10-15T06:06:15.825Z,39.23
2022-10-15T06:08:44.888Z,36.57
2022-10-15T06:11:15.201Z,36.67
2022-10-15T06:13:44.840Z,34.60
2022-10-15T06:16:17.945Z,32.70
2022-10-15T06:18:49.494Z,34.20
2022-10-15T06:21:17.856Z,35.00
2022-10-15T06:23:46.538Z,33.90
2022-10-15T06:26:16.513Z,35.17
2022-10-15T06:28:49.632Z,35.33
2022-10-15T06:31:18.174Z,33.77
2022-10-15T06:33:46.546Z,34.60
2022-10-15T06:36:15.545Z,31.80
2022-10-15T06:38:44.664Z,31.47
2022-10-15T06:41:13.235Z,29.97
2022-10-15T06:43:43.096Z,30.83
2022-10-15T06:46:11.559Z,33.27
2022-10-15T06:48:40.011Z,31.07
2022-10-15T06:51:08.545Z,30.13
2022-10-15T06:53:40.432Z,29.90
2022-10-15T06:56:09.050Z,28.97
2022-10-15T06:58:43.867Z,28.93
2022-10-15T07:01:12.428Z,26.60
2022-10-15T07:03:41.416Z,27.63
2022-10-15T07:06:10.653Z,26.97
2022-10-15T07:08:39.104Z,24.57
2022-10-15T07:11:09.222Z,27.17
2022-10-15T07:13:38.086Z,23.50
2022-10-15T07:16:10.456Z,24.57
2022-10-15T07:18:39.809Z,22.27
2022-10-15T07:23:39.469Z,20.60
2022-10-15T07:26:08.135Z,20.47
2022-10-15T07:28:36.723Z,20.90
2022-10-15T07:31:08.635Z,20.53
2022-10-15T07:33:37.417Z,19.40
2022-10-15T07:36:07.460Z,18.63
2022-10-15T07:38:36.661Z,19.97
2022-10-15T07:41:06.399Z,18.20
2022-10-15T07:43:44.043Z,17.40
2022-10-15T07:46:13.872Z,17.27
2022-10-15T07:48:42.327Z,16.60
2022-10-15T07:51:12.640Z,16.80
2022-10-15T07:53:41.132Z,16.03
2022-10-15T07:56:12.861Z,15.53
2022-10-15T07:58:41.495Z,16.00
2022-10-15T08:01:11.479Z,14.47
2022-10-15T08:03:41.179Z,15.13
2022-10-15T08:06:09.768Z,14.37
2022-10-15T08:08:38.858Z,15.53
2022-10-15T08:11:08.337Z,13.80
2022-10-15T08:13:38.899Z,14.37
2022-10-15T08:16:07.847Z,13.77
2022-10-15T08:18:37.565Z,12.63
2022-10-15T08:21:08.790Z,13.27
2022-10-15T08:23:37.495Z,12.97
2022-10-15T08:26:06.078Z,12.33
2022-10-15T08:28:36.228Z,12.53
2022-10-15T08:31:06.157Z,11.40
2022-10-15T08:33:35.529Z,12.43
2022-10-15T08:36:07.574Z,12.23
2022-10-15T08:38:36.541Z,13.23
2022-10-15T08:41:15.163Z,12.43
2022-10-15T08:43:44.767Z,13.20
2022-10-15T08:46:21.618Z,12.13
2022-10-15T08:48:53.504Z,14.37
2022-10-15T08:51:26.297Z,11.83
2022-10-15T08:53:57.540Z,12.33
2022-10-15T08:56:31.072Z,11.93
2022-10-15T08:59:06.128Z,11.13
2022-10-15T09:01:44.659Z,11.70
2022-10-15T09:04:24.873Z,11.17
2022-10-15T09:07:03.752Z,10.80
2022-10-15T09:09:41.216Z,10.90
2022-10-15T09:12:20.020Z,11.40
2022-10-15T09:14:50.089Z,11.03
2022-10-15T09:17:22.903Z,10.73
2022-10-15T09:19:54.428Z,11.17
2022-10-15T09:22:26.785Z,11.03
2022-10-15T09:24:55.904Z,11.07
2022-10-15T09:27:32.291Z,11.87
2022-10-15T09:30:06.943Z,11.43
2022-10-15T09:32:40.370Z,11.37
2022-10-15T09:35:18.075Z,12.67
2022-10-15T09:37:53.921Z,12.03
2022-10-15T09:40:30.341Z,12.10
2022-10-15T09:43:01.118Z,11.20
2022-10-15T09:45:29.931Z,10.80
2022-10-15T09:48:00.195Z,11.83
2022-10-15T09:50:36.784Z,10.60
2022-10-15T09:53:17.192Z,10.47
2022-10-15T09:55:50.056Z,9.50
2022-10-15T09:58:23.199Z,10.53
2022-10-15T10:00:57.645Z,11.13
2022-10-15T10:03:28.903Z,10.43
2022-10-15T10:06:02.927Z,8.33
2022-10-15T10:11:17.815Z,8.50
2022-10-15T10:13:51.688Z,8.13
2022-10-15T10:16:22.123Z,8.40
2022-10-15T10:19:05.380Z,8.03
2022-10-15T10:21:35.114Z,7.13
2022-10-15T10:24:23.313Z,8.80
2022-10-15T10:26:51.798Z,8.37
2022-10-15T10:29:33.700Z,8.00
2022-10-15T10:32:12.083Z,8.07
2022-10-15T10:34:45.625Z,7.47
2022-10-15T10:37:17.452Z,8.57
2022-10-15T10:39:52.880Z,7.30
2022-10-15T10:42:33.581Z,8.23
2022-10-15T10:45:19.304Z,7.47
2022-10-15T10:47:48.439Z,7.00
2022-10-15T10:50:32.627Z,7.77
2022-10-15T10:53:19.152Z,6.87
2022-10-15T10:55:49.729Z,6.80
2022-10-15T10:58:23.533Z,7.30
2022-10-15T11:00:56.231Z,6.77
2022-10-15T11:03:33.283Z,6.73
2022-10-15T11:06:25.738Z,7.20
2022-10-15T11:09:11.319Z,7.27
2022-10-15T11:11:52.901Z,7.40
2022-10-15T11:14:33.261Z,6.80
2022-10-15T11:17:09.134Z,6.63
2022-10-15T11:22:44.881Z,5.70
2022-10-15T11:25:23.602Z,6.10
2022-10-15T11:28:04.930Z,6.40
2022-10-15T11:30:47.959Z,6.43
2022-10-15T11:33:30.689Z,6.47
2022-10-15T11:36:17.727Z,6.53
2022-10-15T11:38:52.112Z,6.00
2022-10-15T11:41:37.520Z,6.17
2022-10-15T11:44:24.917Z,5.77
2022-10-15T11:47:11.566Z,6.20
2022-10-15T11:49:50.583Z,6.90
2022-10-15T11:52:39.095Z,5.30
2022-10-15T11:55:12.688Z,6.47
2022-10-15T11:57:44.290Z,5.00
2022-10-15T12:00:31.073Z,5.30
2022-10-15T12:03:06.321Z,5.57
2022-10-15T12:05:38.592Z,4.70
2022-10-15T12:08:11.593Z,5.40
2022-10-15T12:11:01.422Z,4.40
2022-10-15T12:13:40.018Z,5.30
2022-10-15T12:16:22.303Z,4.73
2022-10-15T12:18:56.252Z,5.07
2022-10-15T12:21:37.620Z,5.33
2022-10-15T12:24:27.557Z,4.40
2022-10-15T12:26:56.099Z,4.90
2022-10-15T12:29:28.698Z,5.07
2022-10-15T12:32:00.007Z,4.97
2022-10-15T12:34:32.217Z,5.73
2022-10-15T12:37:02.764Z,4.97
2022-10-15T12:42:26.821Z,5.57
2022-10-15T12:44:57.120Z,4.67
2022-10-15T12:47:49.699Z,5.03
2022-10-15T12:50:21.747Z,5.90
2022-10-15T12:52:59.150Z,5.33
2022-10-15T12:55:31.214Z,6.03
2022-10-15T12:58:02.352Z,5.60
2022-10-15T13:00:39.342Z,5.70
2022-10-15T13:03:23.041Z,6.20
2022-10-15T13:05:54.055Z,6.10
2022-10-15T13:08:35.517Z,6.07
2022-10-15T13:11:04.074Z,5.30
2022-10-15T13:13:35.602Z,5.60
2022-10-15T13:16:09.092Z,5.60
2022-10-15T13:18:40.096Z,5.40
2022-10-15T13:21:11.315Z,5.07
2022-10-15T13:23:47.130Z,5.60
2022-10-15T13:26:20.851Z,5.63
2022-10-15T13:28:50.526Z,5.47
2022-10-15T13:31:28.980Z,5.57
2022-10-15T13:34:07.542Z,5.07
2022-10-15T13:36:36.799Z,4.93
2022-10-15T13:39:07.762Z,5.43
2022-10-15T13:41:40.268Z,4.83
2022-10-15T13:44:21.972Z,4.60
2022-10-15T13:46:50.576Z,5.33
2022-10-15T13:49:21.563Z,4.73
2022-10-15T13:51:53.923Z,4.80
2022-10-15T13:54:25.575Z,4.87
2022-10-15T13:56:57.792Z,4.17
2022-10-15T13:59:27.448Z,3.90
2022-10-15T14:02:00.852Z,4.13
2022-10-15T14:04:32.911Z,4.87
2022-10-15T14:07:03.845Z,4.83
2022-10-15T14:09:34.884Z,4.70
2022-10-15T14:12:05.663Z,4.30
2022-10-15T14:14:36.971Z,4.23
2022-10-15T14:17:08.875Z,4.57
2022-10-15T14:19:40.486Z,4.20
2022-10-15T14:22:17.215Z,4.57
2022-10-15T14:24:47.664Z,4.00
2022-10-15T14:27:19.436Z,3.70
2022-10-15T14:29:50.140Z,3.73
2022-10-15T14:32:26.812Z,3.03
2022-10-15T14:34:57.465Z,2.80
2022-10-15T14:37:31.272Z,2.57
2022-10-15T14:40:21.411Z,2.90
2022-10-15T14:43:01.647Z,2.33
2022-10-15T14:45:31.891Z,2.53
2022-10-15T14:48:03.034Z,2.30
2022-10-15T14:50:35.576Z,2.00
2022-10-15T14:53:09.357Z,1.70
2022-10-15T14:55:43.331Z,1.70
2022-10-15T14:58:17.848Z,2.03
2022-10-15T15:00:49.228Z,1.83
2022-10-15T15:03:20.166Z,1.67
2022-10-15T15:05:52.609Z,1.67
2022-10-15T15:08:21.539Z,1.60
2022-10-15T15:10:52.104Z,1.83
2022-10-15T15:13:23.537Z,1.40
2022-10-15T15:15:52.296Z,0.97
2022-10-15T15:18:21.195Z,0.90
2022-10-15T15:20:52.398Z,1.00
2022-10-15T15:23:22.811Z,0.90
2022-10-15T15:25:52.504Z,1.17
2022-10-15T15:28:23.541Z,1.13
2022-10-15T15:30:57.821Z,0.90
2022-10-15T15:33:28.049Z,1.20
2022-10-15T15:36:02.624Z,1.40
2022-10-15T15:38:31.603Z,1.33
2022-10-15T15:41:04.883Z,1.23
2022-10-15T15:43:33.256Z,0.70
2022-10-15T15:46:01.742Z,1.53
2022-10-15T15:48:30.780Z,1.23
2022-10-15T15:51:04.743Z,1.10
2022-10-15T15:53:33.369Z,1.10
2022-10-15T15:56:01.739Z,0.93
2022-10-15T15:58:30.177Z,1.00
2022-10-15T16:00:58.685Z,1.07
2022-10-15T16:03:27.097Z,1.10
2022-10-15T16:05:55.514Z,1.10
2022-10-15T16:08:25.295Z,1.53
2022-10-15T16:10:53.900Z,1.20
2022-10-15T16:13:22.353Z,1.30
2022-10-15T16:15:50.751Z,1.10
2022-10-15T16:18:19.142Z,1.67
2022-10-15T16:20:48.834Z,1.50
2022-10-15T16:23:17.717Z,1.30
2022-10-15T16:25:47.661Z,1.10
2022-10-15T16:28:16.060Z,1.90
2022-10-15T16:30:44.458Z,1.93
2022-10-15T16:33:12.843Z,1.73
2022-10-15T16:35:41.290Z,2.30
2022-10-15T16:38:10.084Z,2.60
2022-10-15T16:40:39.644Z,2.97
2022-10-15T16:43:10.043Z,3.20
2022-10-15T16:45:38.438Z,2.90
2022-10-15T16:48:07.497Z,2.80
2022-10-15T16:50:35.924Z,2.80
2022-10-15T16:53:04.385Z,2.73
2022-10-15T16:55:33.297Z,2.37
2022-10-15T16:58:01.693Z,2.00
2022-10-15T17:00:31.617Z,2.13
2022-10-15T17:03:02.688Z,3.77
2022-10-15T17:05:32.504Z,4.30
2022-10-15T17:08:01.005Z,4.00
2022-10-15T17:10:29.403Z,3.43
2022-10-15T17:12:57.816Z,3.30
2022-10-15T17:15:26.361Z,3.70
2022-10-15T17:17:56.156Z,3.20
2022-10-15T17:20:24.556Z,5.00
2022-10-15T17:22:52.950Z,5.23
2022-10-15T17:25:21.361Z,4.23
2022-10-15T17:27:49.786Z,3.60
2022-10-15T17:30:18.284Z,3.60
2022-10-15T17:32:46.839Z,3.47
2022-10-15T17:35:16.726Z,3.43
2022-10-15T17:37:46.316Z,3.30
2022-10-15T17:40:14.944Z,3.47
2022-10-15T17:42:43.423Z,3.13
2022-10-15T17:45:12.353Z,2.83
2022-10-15T17:47:40.752Z,3.40
2022-10-15T17:50:09.876Z,2.87
2022-10-15T17:52:39.624Z,2.67
2022-10-15T17:55:09.124Z,3.60
2022-10-15T17:57:37.772Z,4.27
2022-10-15T18:00:07.948Z,5.10
2022-10-15T18:02:40.770Z,5.53
2022-10-15T18:05:09.605Z,4.57
2022-10-15T18:07:40.448Z,4.13
2022-10-15T18:10:12.494Z,3.50
2022-10-15T18:12:40.896Z,3.20
2022-10-15T18:15:10.255Z,2.80
2022-10-15T18:17:38.734Z,2.90
2022-10-15T18:20:07.693Z,2.87
2022-10-15T18:22:36.775Z,3.00
2022-10-15T18:25:07.693Z,2.33
2022-10-15T18:27:36.204Z,3.23
2022-10-15T18:30:05.275Z,3.67
2022-10-15T18:35:03.363Z,3.90
2022-10-15T18:37:31.759Z,3.30
2022-10-15T18:40:00.155Z,3.80
2022-10-15T18:42:29.953Z,3.13
2022-10-15T18:44:58.372Z,3.47
2022-10-15T18:47:27.116Z,3.17
2022-10-15T18:49:55.570Z,2.90
2022-10-15T18:52:38.831Z,3.00
2022-10-15T18:55:09.477Z,2.90
2022-10-15T18:57:44.983Z,2.63
2022-10-15T19:00:14.791Z,2.97
2022-10-15T19:02:43.349Z,2.57
2022-10-15T19:05:11.841Z,2.33
2022-10-15T19:07:40.298Z,2.97
2022-10-15T19:10:09.622Z,2.90
2022-10-15T19:12:38.035Z,3.53
2022-10-15T19:15:08.870Z,3.50
2022-10-15T19:17:37.360Z,3.87
2022-10-15T19:20:06.531Z,4.67
2022-10-15T19:22:34.983Z,3.47
2022-10-15T19:25:03.390Z,3.40
2022-10-15T19:27:32.504Z,3.17
2022-10-15T19:30:00.948Z,3.00
2022-10-15T19:32:30.689Z,3.10
2022-10-15T19:34:59.074Z,2.60
2022-10-15T19:37:28.034Z,3.53
2022-10-15T19:39:56.597Z,2.63
2022-10-15T19:42:26.939Z,2.20
2022-10-15T19:44:55.348Z,2.70
2022-10-15T19:47:24.078Z,2.77
2022-10-15T19:49:55.441Z,1.60
2022-10-15T19:52:23.873Z,1.67
2022-10-15T19:54:52.944Z,1.97
2022-10-15T19:57:21.392Z,1.53
2022-10-15T19:59:49.841Z,1.20
2022-10-15T20:02:18.247Z,1.50
2022-10-15T20:04:46.644Z,1.40
2022-10-15T20:07:16.356Z,1.40
2022-10-15T20:09:44.765Z,1.87
2022-10-15T20:12:13.201Z,2.03
2022-10-15T20:14:41.595Z,1.77
2022-10-15T20:17:10.008Z,2.17
2022-10-15T20:19:38.431Z,2.00
2022-10-15T20:22:06.891Z,2.23
2022-10-15T20:24:36.703Z,1.80
2022-10-15T20:27:05.563Z,2.30
2022-10-15T20:29:33.993Z,2.17
2022-10-15T20:32:11.157Z,2.67
2022-10-15T20:34:51.182Z,2.57
2022-10-15T20:37:19.524Z,2.73
2022-10-15T20:39:49.319Z,2.77
2022-10-15T20:42:18.175Z,2.73
2022-10-15T20:44:46.685Z,2.60
2022-10-15T20:47:16.736Z,2.40
2022-10-15T20:49:47.892Z,2.10
2022-10-15T20:52:16.512Z,2.60
2022-10-15T20:54:45.027Z,2.07
2022-10-15T20:57:15.217Z,2.23
2022-10-15T20:59:43.599Z,2.60
2022-10-15T21:02:12.012Z,2.20
2022-10-15T21:04:40.790Z,1.80
2022-10-15T21:07:09.452Z,1.70
2022-10-15T21:09:37.918Z,1.80
2022-10-15T21:12:08.839Z,2.43
2022-10-15T21:14:38.855Z,1.70
2022-10-15T21:17:07.676Z,2.50
2022-10-15T21:19:36.149Z,2.73
2022-10-15T21:22:05.043Z,2.30
2022-10-15T21:24:35.217Z,1.83
2022-10-15T21:27:03.805Z,2.13
2022-10-15T21:29:32.211Z,2.07
2022-10-15T21:32:01.943Z,2.00
2022-10-15T21:34:30.406Z,1.80
2022-10-15T21:36:58.859Z,2.30
2022-10-15T21:39:27.351Z,2.30
2022-10-15T21:41:55.724Z,2.17
2022-10-15T21:44:24.166Z,2.20
2022-10-15T21:46:52.563Z,2.13
2022-10-15T21:49:22.473Z,2.30
2022-10-15T21:51:50.953Z,1.90
2022-10-15T21:54:19.344Z,1.97
2022-10-15T21:56:47.830Z,1.80
2022-10-15T21:59:16.560Z,1.67
2022-10-15T22:01:45.579Z,1.80
2022-10-15T22:04:14.090Z,2.00
2022-10-15T22:06:44.040Z,2.00
2022-10-15T22:09:12.940Z,1.70
2022-10-15T22:11:42.980Z,1.63
2022-10-15T22:14:13.263Z,2.07
2022-10-15T22:16:42.685Z,1.67
2022-10-15T22:19:14.315Z,1.83
2022-10-15T22:21:44.432Z,2.03
2022-10-15T22:24:17.002Z,1.60
2022-10-15T22:26:47.780Z,1.77
2022-10-15T22:29:21.301Z,1.73
2022-10-15T22:31:50.967Z,1.57
2022-10-15T22:34:20.603Z,1.80
2022-10-15T22:36:50.640Z,1.60
2022-10-15T22:39:19.629Z,1.40
2022-10-15T22:41:48.919Z,1.40
2022-10-15T22:44:19.054Z,1.37
2022-10-15T22:46:49.336Z,1.97
2022-10-15T22:49:19.524Z,2.10
2022-10-15T22:51:49.093Z,2.07
2022-10-15T22:54:21.694Z,1.90
2022-10-15T22:56:51.079Z,1.73
2022-10-15T22:59:20.392Z,1.58
2022-10-15T23:01:49.052Z,1.40
2022-10-15T23:04:17.999Z,1.70
2022-10-15T23:06:46.491Z,1.57
2022-10-15T23:09:17.877Z,1.87
2022-10-15T23:11:48.242Z,1.23
2022-10-15T23:14:17.914Z,1.53
2022-10-15T23:16:48.425Z,1.10
2022-10-15T23:19:18.317Z,1.17
2022-10-15T23:21:48.300Z,1.30
2022-10-15T23:24:18.522Z,1.40
2022-10-15T23:26:48.821Z,1.67
2022-10-15T23:29:19.353Z,1.60
2022-10-15T23:31:49.393Z,1.73
2022-10-15T23:34:19.456Z,1.37
2022-10-15T23:36:48.529Z,1.90
2022-10-15T23:39:19.368Z,1.40
2022-10-15T23:41:49.149Z,1.80
2022-10-15T23:44:18.160Z,1.60
2022-10-15T23:46:47.047Z,1.37
2022-10-15T23:49:15.485Z,1.20
2022-10-15T23:51:43.939Z,1.83
2022-10-15T23:54:15.326Z,1.67
2022-10-15T23:56:44.019Z,1.10
2022-10-15T23:59:13.800Z,1.50
